Time;durP1;ratioP1;P1;durP2;ratioP2;P2;SDS_P1;SDS_P2;PMS_P1;PMS_P2;Temp;Humidity;BMP_temperature;BMP_pressure;BME280_temperature;BME280_humidity;BME280_pressure;Samples;Min_cycle;Max_cycle;Signal;HPM_P1;HPM_P2
2023/03/17 00:00:45;;;;;;;7.47;5.40;;;3.60;99.90;;;;;;5135283;27;20031;-71
2023/03/17 00:03:18;;;;;;;8.18;4.63;;;3.60;99.90;;;;;;5149832;27;20034;-71
2023/03/17 00:05:44;;;;;;;6.20;4.30;;;3.60;99.90;;;;;;5140044;27;20088;-71
2023/03/17 00:08:23;;;;;;;7.95;4.90;;;3.60;99.90;;;;;;5150752;27;20019;-70
2023/03/17 00:10:49;;;;;;;7.68;4.90;;;3.50;99.90;;;;;;5139961;27;20039;-71
2023/03/17 00:13:16;;;;;;;10.15;5.22;;;3.50;99.90;;;;;;5143631;27;20026;-71
2023/03/17 00:15:43;;;;;;;6.35;4.50;;;3.50;99.90;;;;;;5143320;27;20130;-71
2023/03/17 00:18:15;;;;;;;12.00;5.45;;;3.50;99.90;;;;;;5146249;27;20031;-72
2023/03/17 00:20:41;;;;;;;5.93;4.38;;;3.50;99.90;;;;;;5148214;27;20537;-72
2023/03/17 00:23:16;;;;;;;7.60;4.43;;;3.50;99.90;;;;;;5136578;27;20015;-72
2023/03/17 00:25:44;;;;;;;6.63;4.05;;;3.50;99.90;;;;;;5144391;27;20118;-72
2023/03/17 00:28:24;;;;;;;10.15;4.88;;;3.50;99.90;;;;;;5152060;27;20027;-72
2023/03/17 00:30:55;;;;;;;6.72;4.45;;;3.60;99.90;;;;;;5144189;27;20035;-72
2023/03/17 00:33:27;;;;;;;7.13;4.85;;;3.60;99.90;;;;;;5146005;27;20035;-72
2023/03/17 00:35:53;;;;;;;7.32;4.18;;;3.60;99.90;;;;;;5150648;27;20436;-71
2023/03/17 00:38:20;;;;;;;8.50;4.72;;;3.70;99.90;;;;;;5151869;27;20052;-72
2023/03/17 00:40:46;;;;;;;7.20;4.53;;;3.70;99.90;;;;;;5148944;27;20031;-72
2023/03/17 00:43:13;;;;;;;6.88;4.45;;;3.70;99.90;;;;;;5134353;27;20061;-72
2023/03/17 00:45:40;;;;;;;8.40;4.18;;;3.70;99.90;;;;;;5145463;27;20055;-72
2023/03/17 00:48:17;;;;;;;7.43;4.15;;;3.80;99.90;;;;;;5146095;27;20031;-71
2023/03/17 00:50:44;;;;;;;10.18;5.50;;;3.80;99.90;;;;;;5146682;27;20064;-72
2023/03/17 00:53:13;;;;;;;9.73;4.88;;;3.90;99.90;;;;;;5143972;27;20045;-72
2023/03/17 00:55:42;;;;;;;11.07;5.60;;;3.90;99.90;;;;;;5149055;27;20430;-72
2023/03/17 00:58:21;;;;;;;8.23;5.13;;;3.90;99.90;;;;;;5142865;27;20026;-73
2023/03/17 01:00:47;;;;;;;6.50;4.95;;;3.90;99.90;;;;;;5142975;27;20444;-72
2023/03/17 01:03:13;;;;;;;9.05;5.10;;;4.00;99.90;;;;;;5146502;27;20102;-73
2023/03/17 01:05:40;;;;;;;8.02;5.53;;;4.10;99.90;;;;;;5152172;27;20162;-72
2023/03/17 01:08:05;;;;;;;6.47;4.50;;;4.10;99.90;;;;;;5152663;27;20079;-72
2023/03/17 01:10:31;;;;;;;8.88;5.38;;;4.20;99.90;;;;;;5148608;27;20402;-72
2023/03/17 01:12:58;;;;;;;8.90;5.20;;;4.30;99.90;;;;;;5141048;27;20384;-73
2023/03/17 01:15:27;;;;;;;9.00;5.45;;;4.40;99.90;;;;;;5145857;27;20035;-72
2023/03/17 01:17:54;;;;;;;11.83;5.20;;;4.50;99.90;;;;;;5147619;27;20107;-72
2023/03/17 01:20:32;;;;;;;9.90;5.57;;;4.50;99.90;;;;;;5143145;27;20122;-72
2023/03/17 01:22:58;;;;;;;7.50;4.75;;;4.50;99.90;;;;;;5139139;27;20014;-72
2023/03/17 01:25:24;;;;;;;7.88;5.00;;;4.60;99.90;;;;;;5148290;27;20140;-72
2023/03/17 01:27:50;;;;;;;6.43;4.28;;;4.70;99.90;;;;;;5144827;27;20037;-71
2023/03/17 01:30:22;;;;;;;5.95;4.25;;;4.80;99.90;;;;;;5142614;27;20034;-72
2023/03/17 01:32:48;;;;;;;6.93;5.00;;;4.90;99.90;;;;;;5140120;27;20027;-72
2023/03/17 01:35:14;;;;;;;6.43;4.80;;;4.90;99.90;;;;;;5136158;27;20068;-72
2023/03/17 01:37:39;;;;;;;11.38;4.82;;;4.90;99.90;;;;;;5126409;27;20034;-72
2023/03/17 01:40:08;;;;;;;10.30;5.40;;;4.90;99.90;;;;;;5142005;27;20118;-72
2023/03/17 01:42:34;;;;;;;9.27;5.55;;;4.90;99.90;;;;;;5151568;27;20093;-71
2023/03/17 01:45:07;;;;;;;8.80;5.32;;;4.90;99.90;;;;;;5143110;27;20118;-71
2023/03/17 01:47:32;;;;;;;9.10;4.65;;;5.00;99.90;;;;;;5148259;27;20034;-71
2023/03/17 01:50:08;;;;;;;7.53;4.78;;;5.00;99.90;;;;;;5143514;27;20031;-72
2023/03/17 01:52:37;;;;;;;6.70;4.82;;;5.00;99.90;;;;;;5140598;27;20043;-72
2023/03/17 01:55:10;;;;;;;10.10;5.43;;;4.90;99.90;;;;;;5150546;27;20446;-72
2023/03/17 01:57:50;;;;;;;13.35;6.63;;;5.00;99.90;;;;;;5129797;27;20027;-72
2023/03/17 02:00:18;;;;;;;10.97;6.03;;;5.00;99.90;;;;;;5142900;27;20033;-72
2023/03/17 02:02:47;;;;;;;8.98;5.47;;;5.00;99.90;;;;;;5150442;27;20287;-71
2023/03/17 02:05:15;;;;;;;7.63;5.63;;;4.90;99.90;;;;;;5145469;27;20080;-72
2023/03/17 02:07:41;;;;;;;7.30;5.40;;;4.90;99.90;;;;;;5142675;27;20455;-71
2023/03/17 02:10:08;;;;;;;11.25;5.13;;;4.80;99.90;;;;;;5151082;27;20098;-72
2023/03/17 02:12:35;;;;;;;10.07;5.50;;;4.70;99.90;;;;;;5151909;27;20358;-72
2023/03/17 02:15:02;;;;;;;9.07;5.53;;;4.60;99.90;;;;;;5142817;27;20050;-72
2023/03/17 02:17:28;;;;;;;10.35;5.18;;;4.60;99.90;;;;;;5150839;27;20110;-72
2023/03/17 02:19:54;;;;;;;7.00;4.97;;;4.50;99.90;;;;;;5146553;27;20055;-72
2023/03/17 02:22:20;;;;;;;6.63;4.40;;;4.50;99.90;;;;;;5151797;27;20027;-72
2023/03/17 02:25:06;;;;;;;6.85;4.97;;;4.50;99.90;;;;;;5144822;27;20473;-72
2023/03/17 02:27:36;;;;;;;6.63;5.00;;;4.40;99.90;;;;;;5148540;27;20400;-72
2023/03/17 02:30:05;;;;;;;7.85;5.15;;;4.30;99.90;;;;;;5141735;27;20023;-72
2023/03/17 02:32:34;;;;;;;6.55;4.47;;;4.30;99.90;;;;;;5152064;27;20477;-72
2023/03/17 02:35:01;;;;;;;5.95;4.18;;;4.20;99.90;;;;;;5149638;27;20058;-72
2023/03/17 02:37:27;;;;;;;11.40;5.38;;;4.10;99.90;;;;;;5156091;27;20038;-72
2023/03/17 02:39:52;;;;;;;9.18;5.10;;;4.10;99.90;;;;;;5145514;27;20027;-72
2023/03/17 02:42:18;;;;;;;9.18;4.95;;;4.00;99.90;;;;;;5151354;27;20361;-72
2023/03/17 02:44:44;;;;;;;7.90;5.22;;;4.00;99.90;;;;;;5148360;27;20068;-73
2023/03/17 02:47:11;;;;;;;7.90;5.28;;;4.00;99.90;;;;;;5149745;27;20074;-73
2023/03/17 02:49:39;;;;;;;10.95;5.43;;;4.00;99.90;;;;;;5149239;27;20122;-72
2023/03/17 02:52:06;;;;;;;7.38;5.18;;;3.90;99.90;;;;;;5151488;27;20037;-71
2023/03/17 02:54:31;;;;;;;9.23;5.25;;;3.90;99.90;;;;;;5148187;27;20031;-71
2023/03/17 02:56:58;;;;;;;6.75;5.25;;;4.00;99.90;;;;;;5151693;27;20052;-72
2023/03/17 02:59:24;;;;;;;7.95;5.22;;;4.00;99.90;;;;;;5148096;27;20030;-72
2023/03/17 03:01:49;;;;;;;11.27;5.70;;;4.10;99.90;;;;;;5143286;27;20045;-71
2023/03/17 03:04:16;;;;;;;8.05;5.15;;;4.10;99.90;;;;;;5137920;27;20023;-71
2023/03/17 03:06:43;;;;;;;6.90;4.97;;;4.10;99.90;;;;;;5140968;27;20076;-72
2023/03/17 03:09:10;;;;;;;9.02;5.85;;;4.10;99.90;;;;;;5138394;27;20550;-72
2023/03/17 03:11:36;;;;;;;7.85;4.70;;;4.10;99.90;;;;;;5142586;27;20059;-72
2023/03/17 03:14:02;;;;;;;11.55;5.18;;;4.10;99.90;;;;;;5146820;27;20037;-72
2023/03/17 03:16:28;;;;;;;9.85;5.35;;;4.00;99.90;;;;;;5153220;27;20022;-72
2023/03/17 03:18:53;;;;;;;7.18;5.10;;;4.00;99.90;;;;;;5152167;27;20023;-72
2023/03/17 03:21:19;;;;;;;9.82;5.15;;;4.00;99.90;;;;;;5152993;27;20027;-72
2023/03/17 03:23:45;;;;;;;6.05;4.55;;;3.90;99.90;;;;;;5152986;27;20376;-72
2023/03/17 03:26:11;;;;;;;7.22;4.78;;;3.90;99.90;;;;;;5149488;27;20022;-72
2023/03/17 03:28:36;;;;;;;8.05;4.70;;;3.80;99.90;;;;;;5144530;27;20094;-72
2023/03/17 03:31:02;;;;;;;10.55;5.80;;;3.80;99.90;;;;;;5144058;27;20088;-72
2023/03/17 03:33:28;;;;;;;6.53;4.57;;;3.70;99.90;;;;;;5139654;27;20034;-72
2023/03/17 03:35:54;;;;;;;7.32;4.90;;;3.70;99.90;;;;;;5141565;27;20500;-73
2023/03/17 03:38:19;;;;;;;7.60;5.32;;;3.70;99.90;;;;;;5143878;27;20488;-72
2023/03/17 03:40:45;;;;;;;5.65;4.45;;;3.60;99.90;;;;;;5143470;27;20461;-72
2023/03/17 03:43:12;;;;;;;7.70;5.05;;;3.50;99.90;;;;;;5142971;27;20473;-71
2023/03/17 03:45:37;;;;;;;9.05;5.22;;;3.40;99.90;;;;;;5121350;27;20046;-73
2023/03/17 03:48:07;;;;;;;8.00;5.28;;;3.40;99.90;;;;;;5146882;27;20034;-73
2023/03/17 03:50:33;;;;;;;10.95;5.60;;;3.30;99.90;;;;;;5149594;27;20023;-72
2023/03/17 03:52:58;;;;;;;10.75;5.63;;;3.30;99.90;;;;;;5146911;27;20065;-72
2023/03/17 03:55:24;;;;;;;8.35;5.70;;;3.20;99.90;;;;;;5150284;27;20031;-72
2023/03/17 03:57:49;;;;;;;8.88;5.18;;;3.20;99.90;;;;;;5143245;27;20603;-72
2023/03/17 04:00:16;;;;;;;9.15;5.25;;;3.20;99.90;;;;;;5145747;27;20098;-79
2023/03/17 04:02:45;;;;;;;10.68;5.63;;;1.70;99.90;;;;;;5150507;27;20513;-79
2023/03/17 04:05:12;;;;;;;8.45;5.40;;;3.30;99.90;;;;;;5157768;27;20029;-80
2023/03/17 04:07:38;;;;;;;7.20;5.18;;;3.20;99.90;;;;;;5150712;27;20488;-79
2023/03/17 04:10:05;;;;;;;8.73;5.53;;;3.20;99.90;;;;;;5156565;27;20023;-83
2023/03/17 04:12:31;;;;;;;7.75;5.03;;;3.20;99.90;;;;;;5149668;27;20051;-80
2023/03/17 04:14:56;;;;;;;8.93;5.53;;;3.10;99.90;;;;;;5148261;27;20180;-80
2023/03/17 04:17:22;;;;;;;7.93;5.43;;;3.10;99.90;;;;;;5148100;27;20456;-77
2023/03/17 04:19:48;;;;;;;8.80;5.72;;;3.00;99.90;;;;;;5150586;27;20109;-80
2023/03/17 04:22:13;;;;;;;9.80;5.82;;;2.90;99.90;;;;;;5147853;27;20493;-80
2023/03/17 04:24:39;;;;;;;8.38;5.78;;;2.90;99.90;;;;;;5148522;27;20030;-77
2023/03/17 04:27:05;;;;;;;9.25;5.47;;;2.80;99.90;;;;;;5145256;27;20361;-77
2023/03/17 04:29:31;;;;;;;9.20;5.75;;;2.80;99.90;;;;;;5150850;27;20027;-80
2023/03/17 04:31:56;;;;;;;11.48;5.90;;;2.70;99.90;;;;;;5148842;27;20034;-79
2023/03/17 04:34:36;;;;;;;7.88;5.50;;;;;;;;;;5148107;27;20035;-71
2023/03/17 04:37:04;;;;;;;8.00;5.35;;;;;;;;;;5150116;27;20023;-73
2023/03/17 04:39:30;;;;;;;10.10;5.63;;;;;;;;;;5147424;27;20102;-72
2023/03/17 04:41:56;;;;;;;10.35;5.80;;;;;;;;;;5140880;27;20102;-73
2023/03/17 04:44:22;;;;;;;9.73;6.07;;;;;;;;;;5142292;27;20437;-72
2023/03/17 04:46:48;;;;;;;8.38;5.35;;;;;;;;;;5151674;27;20135;-72
2023/03/17 04:49:14;;;;;;;7.78;5.82;;;;;;;;;;5144808;27;20041;-73
2023/03/17 04:51:40;;;;;;;8.55;5.47;;;;;;;;;;5143461;27;20022;-76
2023/03/17 04:54:07;;;;;;;9.30;5.95;;;;;;;;;;5146706;27;20030;-77
2023/03/17 04:56:33;;;;;;;7.95;5.70;;;;;;;;;;5142229;27;20027;-71
2023/03/17 04:58:59;;;;;;;10.52;6.55;;;;;;;;;;5141415;27;20023;-73
2023/03/17 05:01:25;;;;;;;8.10;5.60;;;;;;;;;;5144574;27;20023;-76
2023/03/17 05:03:51;;;;;;;10.68;6.05;;;;;;;;;;5146313;27;20088;-74
2023/03/17 05:06:17;;;;;;;10.23;6.07;;;;;;;;;;5151496;27;20465;-75
2023/03/17 05:08:43;;;;;;;10.25;6.50;;;;;;;;;;5148991;27;20109;-71
2023/03/17 05:11:10;;;;;;;7.40;5.50;;;;;;;;;;5147408;27;20019;-72
2023/03/17 05:13:36;;;;;;;9.10;5.18;;;;;;;;;;5153062;27;20420;-71
2023/03/17 05:16:02;;;;;;;7.50;5.60;;;;;;;;;;5146586;27;20410;-70
2023/03/17 05:18:28;;;;;;;10.88;6.53;;;;;;;;;;5155311;27;20046;-72
2023/03/17 05:20:54;;;;;;;10.55;6.05;;;;;;;;;;5156015;27;20095;-71
2023/03/17 05:23:21;;;;;;;7.68;5.22;;;;;;;;;;5156185;27;20023;-72
2023/03/17 05:25:47;;;;;;;10.35;5.93;;;;;;;;;;5149135;27;20508;-71
2023/03/17 05:28:13;;;;;;;12.57;6.15;;;;;;;;;;5155813;27;20465;-71
2023/03/17 05:30:39;;;;;;;10.35;6.07;;;;;;;;;;5154461;27;20026;-71
2023/03/17 05:33:05;;;;;;;8.77;5.82;;;;;;;;;;5156009;27;20567;-71
2023/03/17 05:35:31;;;;;;;8.90;6.43;;;;;;;;;;5150738;27;20511;-71
2023/03/17 05:37:57;;;;;;;10.25;5.75;;;;;;;;;;5154444;27;20058;-72
2023/03/17 05:40:23;;;;;;;8.23;5.68;;;;;;;;;;5154748;27;20015;-71
2023/03/17 05:42:52;;;;;;;9.77;5.43;;;;;;;;;;5154420;27;20034;-71
2023/03/17 05:45:18;;;;;;;10.27;5.68;;;;;;;;;;5149618;27;20053;-71
2023/03/17 05:47:44;;;;;;;9.18;5.57;;;;;;;;;;5149781;27;20023;-71
2023/03/17 05:50:11;;;;;;;10.15;6.10;;;;;;;;;;5150579;27;20369;-71
2023/03/17 05:52:37;;;;;;;7.75;5.35;;;;;;;;;;5148304;27;20577;-71
2023/03/17 05:55:05;;;;;;;8.25;5.22;;;;;;;;;;5148718;27;20045;-71
2023/03/17 05:57:30;;;;;;;8.93;5.55;;;;;;;;;;5148626;27;20022;-72
2023/03/17 05:59:56;;;;;;;7.70;4.93;;;;;;;;;;5150559;27;20030;-71
2023/03/17 06:02:23;;;;;;;11.07;5.70;;;;;;;;;;5152415;27;20031;-71
2023/03/17 06:04:49;;;;;;;9.48;5.32;;;;;;;;;;5149434;27;20503;-72
2023/03/17 06:07:16;;;;;;;8.05;4.90;;;;;;;;;;5140482;27;20030;-72
2023/03/17 06:09:42;;;;;;;11.25;5.93;;;;;;;;;;5146459;27;20075;-70
2023/03/17 06:12:08;;;;;;;11.00;5.95;;;;;;;;;;5143559;27;20030;-70
2023/03/17 06:14:35;;;;;;;8.75;5.32;;;;;;;;;;5146003;27;20046;-70
2023/03/17 06:17:01;;;;;;;11.68;5.80;;;;;;;;;;5145848;27;20015;-71
2023/03/17 06:19:27;;;;;;;11.25;5.75;;;;;;;;;;5148610;27;20034;-71
2023/03/17 06:21:53;;;;;;;11.05;6.30;;;;;;;;;;5140686;27;20880;-70
2023/03/17 06:24:19;;;;;;;7.53;5.38;;;;;;;;;;5148142;27;20058;-67
2023/03/17 06:26:45;;;;;;;7.90;5.18;;;;;;;;;;5146800;27;20058;-68
2023/03/17 06:29:11;;;;;;;10.45;5.32;;;;;;;;;;5145432;27;20451;-69
2023/03/17 06:31:38;;;;;;;9.60;5.30;;;;;;;;;;5142483;27;20023;-74
2023/03/17 06:34:04;;;;;;;7.75;5.13;;;;;;;;;;5145464;27;20027;-68
2023/03/17 06:36:31;;;;;;;8.57;4.85;;;;;;;;;;5145103;27;20023;-70
2023/03/17 06:38:57;;;;;;;10.95;5.70;;;;;;;;;;5149090;27;20098;-71
2023/03/17 06:41:23;;;;;;;10.90;5.28;;;;;;;;;;5145146;27;20105;-72
2023/03/17 06:43:50;;;;;;;11.68;5.75;;;;;;;;;;5145328;27;20099;-78
2023/03/17 06:46:16;;;;;;;9.45;4.70;;;;;;;;;;5150158;27;20517;-78
2023/03/17 06:48:42;;;;;;;7.68;4.70;;;;;;;;;;5147909;27;20457;-72
2023/03/17 06:51:08;;;;;;;10.15;5.35;;;;;;;;;;5148333;27;20125;-71
2023/03/17 06:53:35;;;;;;;11.18;6.05;;;;;;;;;;5140635;27;20452;-77
2023/03/17 06:56:01;;;;;;;8.50;5.22;;;;;;;;;;5126174;27;20436;-76
2023/03/17 06:58:27;;;;;;;8.15;5.35;;;;;;;;;;5145724;27;20015;-74
2023/03/17 07:00:53;;;;;;;14.48;5.45;;;;;;;;;;5146518;27;20037;-75
2023/03/17 07:03:20;;;;;;;19.05;6.45;;;;;;;;;;5151436;27;20098;-71
2023/03/17 07:05:46;;;;;;;11.50;6.18;;;;;;;;;;5148928;27;20026;-71
2023/03/17 07:08:12;;;;;;;9.93;6.15;;;;;;;;;;5150174;27;20018;-70
2023/03/17 07:10:41;;;;;;;12.00;7.40;;;;;;;;;;5149419;27;20026;-70
2023/03/17 07:13:07;;;;;;;10.32;7.47;;;5.30;99.90;;;;;;5143589;27;20026;-71
2023/03/17 07:15:34;;;;;;;14.25;6.82;;;5.50;99.90;;;;;;5151387;27;20454;-71
2023/03/17 07:18:00;;;;;;;13.20;6.45;;;5.60;99.90;;;;;;5149728;27;20034;-74
2023/03/17 07:20:26;;;;;;;9.98;6.30;;;5.80;99.90;;;;;;5147845;27;20022;-71
2023/03/17 07:22:52;;;;;;;12.50;6.00;;;6.00;99.90;;;;;;5140596;27;20307;-71
2023/03/17 07:25:18;;;;;;;13.32;7.80;;;6.10;99.90;;;;;;5143999;27;20335;-70
2023/03/17 07:27:44;;;;;;;16.83;8.38;;;6.30;99.90;;;;;;5150822;27;20038;-72
2023/03/17 07:30:11;;;;;;;14.82;8.95;;;6.50;99.90;;;;;;5146138;27;20045;-71
2023/03/17 07:32:38;;;;;;;12.93;8.27;;;;;;;;;;5146851;27;20027;-69
2023/03/17 07:35:04;;;;;;;12.18;7.22;;;;;;;;;;5146433;27;20023;-69
2023/03/17 07:37:30;;;;;;;12.18;7.18;;;;;;;;;;5137735;27;20023;-70
2023/03/17 07:39:56;;;;;;;12.82;6.07;;;;;;;;;;5148177;27;20023;-69
2023/03/17 07:42:22;;;;;;;12.82;6.78;;;;;;;;;;5152126;27;20026;-70
2023/03/17 07:44:48;;;;;;;10.13;5.95;;;;;;;;;;5150762;27;20022;-70
2023/03/17 07:47:14;;;;;;;10.75;6.55;;;7.40;99.90;;;;;;5151061;27;20082;-70
2023/03/17 07:49:40;;;;;;;8.35;6.22;;;7.50;99.90;;;;;;5147278;27;20525;-69
2023/03/17 07:52:07;;;;;;;9.52;6.15;;;7.50;99.90;;;;;;5152226;27;20129;-69
2023/03/17 07:54:33;;;;;;;9.32;5.88;;;7.50;99.90;;;;;;5151309;27;20443;-70
2023/03/17 07:56:58;;;;;;;6.82;5.18;;;7.50;99.90;;;;;;5149942;27;20031;-70
2023/03/17 07:59:24;;;;;;;8.63;4.28;;;7.60;99.90;;;;;;5147911;27;20037;-69
2023/03/17 08:01:50;;;;;;;7.68;4.60;;;7.70;99.90;;;;;;5140806;27;20338;-69
2023/03/17 08:04:16;;;;;;;7.53;4.63;;;7.70;99.90;;;;;;5145254;27;20023;-70
2023/03/17 08:06:41;;;;;;;7.45;5.25;;;7.80;99.90;;;;;;5150256;27;20034;-70
2023/03/17 08:09:09;;;;;;;10.02;5.75;;;7.80;99.90;;;;;;5151185;27;20027;-70
2023/03/17 08:11:36;;;;;;;9.45;5.00;;;7.90;99.90;;;;;;5145508;27;20033;-69
2023/03/17 08:14:02;;;;;;;8.13;5.18;;;8.00;99.90;;;;;;5146493;27;20034;-70
2023/03/17 08:16:29;;;;;;;6.70;5.10;;;8.10;99.90;;;;;;5151258;27;20049;-72
2023/03/17 08:18:57;;;;;;;7.82;5.78;;;8.20;99.90;;;;;;5145376;27;20732;-70
2023/03/17 08:21:24;;;;;;;8.25;4.60;;;8.40;99.90;;;;;;5154793;27;20778;-70
2023/03/17 08:23:49;;;;;;;7.18;5.20;;;8.70;99.90;;;;;;5154882;27;20023;-70
2023/03/17 08:26:15;;;;;;;12.65;6.45;;;8.80;99.90;;;;;;5155213;27;20026;-72
2023/03/17 08:28:41;;;;;;;9.68;5.43;;;9.00;99.90;;;;;;5149422;27;20027;-71
2023/03/17 08:31:08;;;;;;;9.50;5.43;;;9.10;99.90;;;;;;5155342;27;20035;-72
2023/03/17 08:33:34;;;;;;;13.43;5.50;;;9.40;99.90;;;;;;5155737;27;20023;-68
2023/03/17 08:36:03;;;;;;;9.82;6.03;;;9.50;99.90;;;;;;5152125;27;20040;-73
2023/03/17 08:38:29;;;;;;;9.73;5.77;;;9.50;99.90;;;;;;5151240;27;20029;-70
2023/03/17 08:41:00;;;;;;;8.80;5.65;;;9.60;99.90;;;;;;5152146;27;20891;-71
2023/03/17 08:43:26;;;;;;;8.95;5.30;;;9.60;99.90;;;;;;5152071;27;20512;-72
2023/03/17 08:45:57;;;;;;;7.70;5.20;;;9.50;99.90;;;;;;5150957;27;20030;-71
2023/03/17 08:48:23;;;;;;;7.78;5.15;;;9.60;99.90;;;;;;5155913;27;20034;-71
2023/03/17 08:50:48;;;;;;;6.95;4.45;;;9.70;99.90;;;;;;5150549;27;20035;-71
2023/03/17 08:53:14;;;;;;;9.43;5.38;;;9.80;99.90;;;;;;5151640;27;20066;-71
2023/03/17 08:55:40;;;;;;;15.35;5.78;;;9.90;99.90;;;;;;5150692;27;20488;-71
2023/03/17 08:58:05;;;;;;;6.53;4.65;;;10.00;99.90;;;;;;5145674;27;20066;-72
2023/03/17 09:00:33;;;;;;;9.95;5.45;;;10.20;99.90;;;;;;5151180;27;20091;-73
2023/03/17 09:02:58;;;;;;;8.07;5.13;;;10.20;99.90;;;;;;5151487;27;20134;-70
2023/03/17 09:05:25;;;;;;;7.70;5.55;;;10.30;99.90;;;;;;5143947;27;20469;-71
2023/03/17 09:07:51;;;;;;;9.30;5.38;;;10.50;99.90;;;;;;5153825;27;20058;-70
2023/03/17 09:10:21;;;;;;;7.75;4.55;;;10.70;99.90;;;;;;5153889;27;20098;-70
2023/03/17 09:12:47;;;;;;;10.65;5.13;;;10.90;99.90;;;;;;5150362;27;20484;-71
2023/03/17 09:15:13;;;;;;;12.23;5.05;;;11.10;99.90;;;;;;5154788;27;20106;-71
2023/03/17 09:17:40;;;;;;;10.80;5.55;;;11.30;99.90;;;;;;5153665;27;20114;-69
2023/03/17 09:20:10;;;;;;;10.38;4.65;;;11.60;99.90;;;;;;5151411;27;20058;-72
2023/03/17 09:22:36;;;;;;;11.88;5.15;;;11.90;99.90;;;;;;5152873;27;20023;-68
2023/03/17 09:25:02;;;;;;;12.32;5.85;;;12.10;99.90;;;;;;5154304;27;20529;-73
2023/03/17 09:27:28;;;;;;;112.05;10.00;;;12.30;99.80;;;;;;5147874;27;20030;-71
2023/03/17 09:29:54;;;;;;;16.65;5.03;;;12.40;99.60;;;;;;5146882;27;20030;-72
2023/03/17 09:32:19;;;;;;;11.20;6.13;;;12.40;99.60;;;;;;5150531;27;20031;-71
2023/03/17 09:34:46;;;;;;;8.18;5.22;;;12.50;99.50;;;;;;5153065;27;20034;-71
2023/03/17 09:37:12;;;;;;;11.52;4.95;;;12.50;98.80;;;;;;5148122;27;20022;-71
2023/03/17 09:39:38;;;;;;;10.80;5.28;;;12.60;99.90;;;;;;5153015;27;20026;-68
2023/03/17 09:42:23;;;;;;;9.93;4.82;;;12.60;98.40;;;;;;5152351;27;20378;-72
2023/03/17 09:45:30;;;;;;;8.98;5.10;;;12.50;98.50;;;;;;5145488;27;20029;-71
2023/03/17 09:48:01;;;;;;;8.43;5.43;;;12.80;99.00;;;;;;5087546;28;20032;-71
2023/03/17 09:50:34;;;;;;;9.48;4.95;;;12.80;98.00;;;;;;5078505;28;20024;-71
2023/03/17 09:53:11;;;;;;;9.75;5.60;;;12.90;97.60;;;;;;5078734;28;20124;-71
2023/03/17 09:55:37;;;;;;;10.45;6.45;;;13.00;97.80;;;;;;5080095;28;20107;-69
2023/03/17 09:58:03;;;;;;;9.38;5.63;;;13.10;97.60;;;;;;5089528;28;20111;-71
2023/03/17 10:00:30;;;;;;;11.35;5.30;;;13.30;96.80;;;;;;5079962;28;20490;-71
2023/03/17 10:02:57;;;;;;;9.07;5.45;;;13.50;97.00;;;;;;5082164;28;20740;-71
2023/03/17 10:05:26;;;;;;;8.52;5.20;;;13.70;96.70;;;;;;5089221;28;20043;-72
2023/03/17 10:08:12;;;;;;;10.03;4.83;;;13.90;95.90;;;;;;5084693;28;20047;-72
2023/03/17 10:11:00;;;;;;;10.60;4.57;;;14.10;95.70;;;;;;5091421;28;20036;-71
2023/03/17 10:13:26;;;;;;;7.68;4.00;;;;;;;;;;5086875;28;20056;-72
2023/03/17 10:16:03;;;;;;;8.02;4.38;;;14.60;94.00;;;;;;5077679;28;20033;-72
2023/03/17 10:18:36;;;;;;;11.95;6.18;;;14.70;93.40;;;;;;5107610;27;20496;-71
2023/03/17 10:21:05;;;;;;;8.00;5.20;;;14.80;92.90;;;;;;5157093;27;20030;-72
2023/03/17 10:23:33;;;;;;;14.55;4.53;;;14.90;92.50;;;;;;5140903;27;20038;-71
2023/03/17 10:26:22;;;;;;;9.50;3.80;;;15.00;92.40;;;;;;5132816;27;20058;-71
2023/03/17 10:28:47;;;;;;;8.70;4.00;;;15.10;92.10;;;;;;5151551;27;20039;-71
2023/03/17 10:31:20;;;;;;;9.27;3.58;;;15.30;91.80;;;;;;5153069;27;20033;-71
2023/03/17 10:33:51;;;;;;;9.38;3.67;;;15.50;90.20;;;;;;5142154;27;20090;-71
2023/03/17 10:36:33;;;;;;;10.32;4.25;;;15.60;90.60;;;;;;5146259;27;20071;-70
2023/03/17 10:39:04;;;;;;;10.70;4.25;;;15.80;90.20;;;;;;5152603;27;20021;-72
2023/03/17 10:41:31;;;;;;;9.23;4.05;;;16.10;90.10;;;;;;5143132;27;20027;-72
2023/03/17 10:43:58;;;;;;;5.53;3.42;;;16.40;87.80;;;;;;5144602;27;20118;-71
2023/03/17 10:46:25;;;;;;;6.85;3.40;;;16.70;87.60;;;;;;5144754;27;20485;-71
2023/03/17 10:49:18;;;;;;;7.97;3.15;;;16.90;85.70;;;;;;5142694;27;20075;-71
2023/03/17 10:51:45;;;;;;;6.85;3.17;;;17.30;84.10;;;;;;5141136;27;20049;-71
2023/03/17 10:54:19;;;;;;;7.43;3.95;;;17.50;82.10;;;;;;5152381;27;20033;-70
2023/03/17 10:56:48;;;;;;;12.70;4.68;;;17.80;81.70;;;;;;5148511;27;20026;-70
2023/03/17 10:59:47;;;;;;;11.40;4.50;;;18.00;80.40;;;;;;5128902;27;20166;-70
2023/03/17 11:02:35;;;;;;;6.17;3.53;;;18.10;79.30;;;;;;5117142;27;20035;-70
2023/03/17 11:05:16;;;;;;;11.32;3.65;;;18.30;79.10;;;;;;5150973;27;20073;-71
2023/03/17 11:07:42;;;;;;;5.43;3.05;;;18.40;76.60;;;;;;5147717;27;20023;-70
2023/03/17 11:10:22;;;;;;;9.63;3.47;;;18.50;76.40;;;;;;5145657;27;20046;-70
2023/03/17 11:13:00;;;;;;;5.10;3.03;;;18.60;75.10;;;;;;5152019;27;20115;-70
2023/03/17 11:15:33;;;;;;;4.45;2.55;;;18.60;74.20;;;;;;5152289;27;20043;-71
2023/03/17 11:18:32;;;;;;;6.60;2.88;;;18.60;75.10;;;;;;5147792;27;20051;-71
2023/03/17 11:21:03;;;;;;;7.90;2.90;;;18.70;73.70;;;;;;5123424;27;20446;-71
2023/03/17 11:23:56;;;;;;;5.85;2.72;;;18.80;74.40;;;;;;5152906;27;20372;-70
2023/03/17 11:26:47;;;;;;;9.20;2.83;;;19.00;73.30;;;;;;5149272;27;20035;-70
2023/03/17 11:29:15;;;;;;;4.15;2.97;;;19.20;72.70;;;;;;5150727;27;20087;-70
2023/03/17 11:32:00;;;;;;;5.00;3.13;;;19.50;71.70;;;;;;5150239;27;20477;-70
2023/03/17 11:34:58;;;;;;;5.65;2.80;;;19.80;80.00;;;;;;5149430;27;20037;-70
2023/03/17 11:37:32;;;;;;;5.57;2.70;;;19.90;93.60;;;;;;5094651;27;20033;-70
2023/03/17 11:40:21;;;;;;;4.60;2.22;;;;;;;;;;5144527;27;20030;-71
2023/03/17 11:42:47;;;;;;;3.63;1.95;;;;;;;;;;5140849;27;20034;-71
2023/03/17 11:45:42;;;;;;;2.55;1.80;;;20.20;96.00;;;;;;5150278;27;20031;-71
2023/03/17 11:48:28;;;;;;;5.82;3.67;;;20.50;93.60;;;;;;5150892;27;20026;-72
2023/03/17 11:51:26;;;;;;;4.90;3.85;;;20.50;88.60;;;;;;5149708;27;20088;-72
2023/03/17 11:54:22;;;;;;;5.47;2.65;;;20.60;65.40;;;;;;5151237;27;20031;-72
2023/03/17 11:56:55;;;;;;;2.42;1.23;;;21.00;64.90;;;;;;5149075;27;20065;-70
2023/03/17 11:59:48;;;;;;;2.17;1.23;;;21.30;62.70;;;;;;5138147;27;20034;-72
2023/03/17 12:02:26;;;;;;;2.85;2.10;;;21.90;62.30;;;;;;5147812;27;20026;-71
2023/03/17 12:04:57;;;;;;;2.90;1.48;;;22.30;60.50;;;;;;5149922;27;20062;-72
2023/03/17 12:07:27;;;;;;;5.50;2.28;;;22.50;61.00;;;;;;5147612;27;20473;-72
2023/03/17 12:10:03;;;;;;;;;;;22.80;61.10;;;;;;5148286;27;20058;-71
2023/03/17 12:12:44;;;;;;;5.38;1.70;;;22.70;61.50;;;;;;5151244;27;19911;-70
2023/03/17 12:15:17;;;;;;;7.30;2.53;;;22.60;59.20;;;;;;5140781;27;20027;-72
2023/03/17 12:18:15;;;;;;;2.35;1.88;;;22.50;58.80;;;;;;5140359;27;20038;-72
2023/03/17 12:20:53;;;;;;;3.75;2.70;;;22.30;60.20;;;;;;5148388;27;20023;-71
2023/03/17 12:23:31;;;;;;;9.93;3.05;;;22.30;61.30;;;;;;5140985;27;20019;-72
2023/03/17 12:25:59;;;;;;;5.85;2.47;;;22.30;60.10;;;;;;5148143;27;20213;-70
2023/03/17 12:28:30;;;;;;;7.10;2.65;;;22.40;59.90;;;;;;5144633;27;20053;-71
2023/03/17 12:30:58;;;;;;;;;;;22.40;59.60;;;;;;5150689;27;20034;-73
2023/03/17 12:33:31;;;;;;;6.25;2.47;;;22.40;59.40;;;;;;5127663;28;20396;-72
2023/03/17 12:35:59;;;;;;;4.43;2.10;;;22.70;58.80;;;;;;5147965;27;20083;-72
2023/03/17 12:38:44;;;;;;;4.63;2.30;;;23.00;57.30;;;;;;5151348;27;20433;-71
2023/03/17 12:41:28;;;;;;;6.13;1.75;;;22.90;58.90;;;;;;5146169;27;20546;-71
2023/03/17 12:44:12;;;;;;;6.05;2.00;;;22.80;57.60;;;;;;5150499;27;20495;-70
2023/03/17 12:46:50;;;;;;;5.60;1.92;;;22.60;57.20;;;;;;5145449;27;20502;-68
2023/03/17 12:49:36;;;;;;;5.15;2.10;;;22.50;57.90;;;;;;5151779;27;20027;-71
2023/03/17 12:52:05;;;;;;;6.25;2.35;;;22.50;57.80;;;;;;5142213;27;20049;-71
2023/03/17 12:54:35;;;;;;;3.10;1.63;;;22.40;57.00;;;;;;5149851;27;20433;-72
2023/03/17 12:57:21;;;;;;;2.30;1.75;;;22.40;56.70;;;;;;5145105;27;20038;-70
2023/03/17 13:00:04;;;;;;;2.35;1.58;;;22.40;57.40;;;;;;5146629;27;20027;-70
2023/03/17 13:02:34;;;;;;;3.45;1.33;;;22.50;56.50;;;;;;5144125;27;20041;-70
2023/03/17 13:05:04;;;;;;;1.10;1.00;;;22.70;54.90;;;;;;5143856;27;20038;-70
2023/03/17 13:07:30;;;;;;;;;;;22.70;53.00;;;;;;5154863;27;20097;-69
2023/03/17 13:09:56;;;;;;;1.98;1.20;;;22.60;53.50;;;;;;5152478;27;20052;-70
2023/03/17 13:12:40;;;;;;;3.08;1.70;;;22.60;53.80;;;;;;5154872;27;20433;-70
2023/03/17 13:15:21;;;;;;;2.85;1.67;;;22.60;54.10;;;;;;5151012;27;20474;-70
2023/03/17 13:17:47;;;;;;;6.72;1.83;;;22.50;54.80;;;;;;5150618;27;20054;-70
2023/03/17 13:20:18;;;;;;;2.95;1.25;;;22.40;55.50;;;;;;5153608;27;20409;-73
2023/03/17 13:22:59;;;;;;;2.47;1.70;;;22.50;53.30;;;;;;5148227;27;20035;-70
2023/03/17 13:25:34;;;;;;;4.93;1.90;;;22.50;54.50;;;;;;5147647;27;20390;-71